sensor_id;sensor_type;location;lat;lon;timestamp;P1;durP1;ratioP1;P2;durP2;ratioP2
38843;SDS011;24596;48.080;8.362;2023-07-09T00:01:33;9.52;;;4.93;;
38843;SDS011;24596;48.080;8.362;2023-07-09T00:03:58;9.55;;;5.00;;
38843;SDS011;24596;48.080;8.362;2023-07-09T00:06:23;10.93;;;4.93;;
38843;SDS011;24596;48.080;8.362;2023-07-09T00:08:49;8.40;;;4.80;;
38843;SDS011;24596;48.080;8.362;2023-07-09T00:11:14;10.52;;;5.20;;
38843;SDS011;24596;48.080;8.362;2023-07-09T00:13:40;8.88;;;4.43;;
38843;SDS011;24596;48.080;8.362;2023-07-09T00:16:10;10.45;;;5.40;;
38843;SDS011;24596;48.080;8.362;2023-07-09T00:18:36;10.90;;;4.93;;
38843;SDS011;24596;48.080;8.362;2023-07-09T00:21:01;10.02;;;5.75;;
38843;SDS011;24596;48.080;8.362;2023-07-09T00:23:27;9.65;;;4.85;;
38843;SDS011;24596;48.080;8.362;2023-07-09T00:25:52;7.57;;;4.80;;
38843;SDS011;24596;48.080;8.362;2023-07-09T00:28:17;11.10;;;5.22;;
38843;SDS011;24596;48.080;8.362;2023-07-09T00:30:46;10.95;;;4.53;;
38843;SDS011;24596;48.080;8.362;2023-07-09T00:33:12;11.25;;;5.10;;
38843;SDS011;24596;48.080;8.362;2023-07-09T00:35:40;11.30;;;4.75;;
38843;SDS011;24596;48.080;8.362;2023-07-09T00:38:15;12.75;;;4.85;;
38843;SDS011;24596;48.080;8.362;2023-07-09T00:41:00;8.15;;;4.80;;
38843;SDS011;24596;48.080;8.362;2023-07-09T00:46:10;11.30;;;5.32;;
38843;SDS011;24596;48.080;8.362;2023-07-09T00:48:38;10.23;;;5.70;;
38843;SDS011;24596;48.080;8.362;2023-07-09T00:51:04;12.10;;;5.90;;
38843;SDS011;24596;48.080;8.362;2023-07-09T00:53:35;7.93;;;4.60;;
38843;SDS011;24596;48.080;8.362;2023-07-09T00:56:07;11.35;;;4.90;;
38843;SDS011;24596;48.080;8.362;2023-07-09T00:58:34;9.25;;;5.22;;
38843;SDS011;24596;48.080;8.362;2023-07-09T01:01:04;9.45;;;5.40;;
38843;SDS011;24596;48.080;8.362;2023-07-09T01:03:34;8.93;;;4.75;;
38843;SDS011;24596;48.080;8.362;2023-07-09T01:06:00;8.63;;;4.95;;
38843;SDS011;24596;48.080;8.362;2023-07-09T01:08:25;9.80;;;5.03;;
38843;SDS011;24596;48.080;8.362;2023-07-09T01:10:55;8.65;;;4.70;;
38843;SDS011;24596;48.080;8.362;2023-07-09T01:13:20;11.73;;;5.65;;
38843;SDS011;24596;48.080;8.362;2023-07-09T01:15:46;9.77;;;5.28;;
38843;SDS011;24596;48.080;8.362;2023-07-09T01:18:12;10.23;;;5.18;;
38843;SDS011;24596;48.080;8.362;2023-07-09T01:20:38;11.60;;;5.45;;
38843;SDS011;24596;48.080;8.362;2023-07-09T01:23:03;8.60;;;4.97;;
38843;SDS011;24596;48.080;8.362;2023-07-09T01:25:34;8.43;;;4.82;;
38843;SDS011;24596;48.080;8.362;2023-07-09T01:28:00;10.43;;;5.45;;
38843;SDS011;24596;48.080;8.362;2023-07-09T01:30:30;10.98;;;5.32;;
38843;SDS011;24596;48.080;8.362;2023-07-09T01:32:57;11.65;;;5.00;;
38843;SDS011;24596;48.080;8.362;2023-07-09T01:35:33;9.55;;;4.93;;
38843;SDS011;24596;48.080;8.362;2023-07-09T01:38:01;10.55;;;5.18;;
38843;SDS011;24596;48.080;8.362;2023-07-09T01:40:27;10.35;;;4.80;;
38843;SDS011;24596;48.080;8.362;2023-07-09T01:42:54;10.90;;;5.30;;
38843;SDS011;24596;48.080;8.362;2023-07-09T01:45:23;11.60;;;4.82;;
38843;SDS011;24596;48.080;8.362;2023-07-09T01:47:48;9.63;;;5.22;;
38843;SDS011;24596;48.080;8.362;2023-07-09T01:50:14;10.30;;;5.00;;
38843;SDS011;24596;48.080;8.362;2023-07-09T01:52:41;9.80;;;4.70;;
38843;SDS011;24596;48.080;8.362;2023-07-09T01:55:11;11.38;;;5.43;;
38843;SDS011;24596;48.080;8.362;2023-07-09T01:57:36;13.00;;;4.97;;
38843;SDS011;24596;48.080;8.362;2023-07-09T02:00:05;11.70;;;5.10;;
38843;SDS011;24596;48.080;8.362;2023-07-09T02:02:31;10.65;;;5.05;;
38843;SDS011;24596;48.080;8.362;2023-07-09T02:04:57;10.95;;;5.47;;
38843;SDS011;24596;48.080;8.362;2023-07-09T02:07:23;9.77;;;5.38;;
38843;SDS011;24596;48.080;8.362;2023-07-09T02:09:50;12.52;;;5.65;;
38843;SDS011;24596;48.080;8.362;2023-07-09T02:12:15;10.82;;;4.85;;
38843;SDS011;24596;48.080;8.362;2023-07-09T02:14:41;10.80;;;5.38;;
38843;SDS011;24596;48.080;8.362;2023-07-09T02:17:07;9.40;;;5.22;;
38843;SDS011;24596;48.080;8.362;2023-07-09T02:19:32;8.98;;;4.50;;
38843;SDS011;24596;48.080;8.362;2023-07-09T02:21:57;9.10;;;4.75;;
38843;SDS011;24596;48.080;8.362;2023-07-09T02:24:23;10.77;;;5.00;;
38843;SDS011;24596;48.080;8.362;2023-07-09T02:26:50;10.85;;;5.20;;
38843;SDS011;24596;48.080;8.362;2023-07-09T02:29:15;12.25;;;4.78;;
38843;SDS011;24596;48.080;8.362;2023-07-09T02:31:41;11.15;;;5.32;;
38843;SDS011;24596;48.080;8.362;2023-07-09T02:34:06;10.00;;;4.68;;
38843;SDS011;24596;48.080;8.362;2023-07-09T02:36:32;12.30;;;5.47;;
38843;SDS011;24596;48.080;8.362;2023-07-09T02:38:57;11.20;;;4.95;;
38843;SDS011;24596;48.080;8.362;2023-07-09T02:41:22;10.48;;;4.25;;
38843;SDS011;24596;48.080;8.362;2023-07-09T02:43:47;8.70;;;4.73;;
38843;SDS011;24596;48.080;8.362;2023-07-09T02:46:13;9.77;;;4.47;;
38843;SDS011;24596;48.080;8.362;2023-07-09T02:48:38;10.77;;;5.17;;
38843;SDS011;24596;48.080;8.362;2023-07-09T02:51:03;10.57;;;6.03;;
38843;SDS011;24596;48.080;8.362;2023-07-09T02:53:28;12.82;;;4.93;;
38843;SDS011;24596;48.080;8.362;2023-07-09T02:55:53;10.82;;;4.72;;
38843;SDS011;24596;48.080;8.362;2023-07-09T02:58:19;9.13;;;4.90;;
38843;SDS011;24596;48.080;8.362;2023-07-09T03:00:44;10.87;;;5.40;;
38843;SDS011;24596;48.080;8.362;2023-07-09T03:03:16;8.68;;;4.60;;
38843;SDS011;24596;48.080;8.362;2023-07-09T03:05:41;9.52;;;5.00;;
38843;SDS011;24596;48.080;8.362;2023-07-09T03:08:09;10.05;;;4.88;;
38843;SDS011;24596;48.080;8.362;2023-07-09T03:10:34;10.52;;;4.93;;
38843;SDS011;24596;48.080;8.362;2023-07-09T03:12:59;10.05;;;5.00;;
38843;SDS011;24596;48.080;8.362;2023-07-09T03:15:24;7.90;;;4.60;;
38843;SDS011;24596;48.080;8.362;2023-07-09T03:17:50;9.45;;;4.60;;
38843;SDS011;24596;48.080;8.362;2023-07-09T03:20:15;8.60;;;4.47;;
38843;SDS011;24596;48.080;8.362;2023-07-09T03:22:40;9.10;;;5.32;;
38843;SDS011;24596;48.080;8.362;2023-07-09T03:25:05;8.60;;;4.90;;
38843;SDS011;24596;48.080;8.362;2023-07-09T03:27:31;8.93;;;5.00;;
38843;SDS011;24596;48.080;8.362;2023-07-09T03:29:56;10.65;;;4.90;;
38843;SDS011;24596;48.080;8.362;2023-07-09T03:32:21;9.95;;;4.78;;
38843;SDS011;24596;48.080;8.362;2023-07-09T03:34:46;9.88;;;4.97;;
38843;SDS011;24596;48.080;8.362;2023-07-09T03:37:11;9.82;;;4.80;;
38843;SDS011;24596;48.080;8.362;2023-07-09T03:39:37;9.23;;;4.47;;
38843;SDS011;24596;48.080;8.362;2023-07-09T03:42:02;10.17;;;5.10;;
38843;SDS011;24596;48.080;8.362;2023-07-09T03:44:28;9.32;;;4.63;;
38843;SDS011;24596;48.080;8.362;2023-07-09T03:46:53;9.80;;;5.20;;
38843;SDS011;24596;48.080;8.362;2023-07-09T03:49:18;9.68;;;4.47;;
38843;SDS011;24596;48.080;8.362;2023-07-09T03:51:43;9.60;;;5.10;;
38843;SDS011;24596;48.080;8.362;2023-07-09T03:54:09;10.73;;;5.07;;
38843;SDS011;24596;48.080;8.362;2023-07-09T03:56:34;10.32;;;4.35;;
38843;SDS011;24596;48.080;8.362;2023-07-09T03:58:59;8.93;;;4.97;;
38843;SDS011;24596;48.080;8.362;2023-07-09T04:01:24;11.35;;;4.88;;
38843;SDS011;24596;48.080;8.362;2023-07-09T04:03:50;9.18;;;5.28;;
38843;SDS011;24596;48.080;8.362;2023-07-09T04:06:15;10.48;;;4.82;;
38843;SDS011;24596;48.080;8.362;2023-07-09T04:08:40;10.73;;;4.68;;
38843;SDS011;24596;48.080;8.362;2023-07-09T04:11:05;9.57;;;4.53;;
38843;SDS011;24596;48.080;8.362;2023-07-09T04:13:31;11.10;;;4.85;;
38843;SDS011;24596;48.080;8.362;2023-07-09T04:15:56;12.45;;;5.43;;
38843;SDS011;24596;48.080;8.362;2023-07-09T04:18:22;11.02;;;4.78;;
38843;SDS011;24596;48.080;8.362;2023-07-09T04:20:47;8.57;;;4.47;;
38843;SDS011;24596;48.080;8.362;2023-07-09T04:23:14;9.32;;;5.00;;
38843;SDS011;24596;48.080;8.362;2023-07-09T04:25:39;10.90;;;4.82;;
38843;SDS011;24596;48.080;8.362;2023-07-09T04:28:04;8.18;;;3.97;;
38843;SDS011;24596;48.080;8.362;2023-07-09T04:30:30;8.73;;;4.35;;
38843;SDS011;24596;48.080;8.362;2023-07-09T04:32:56;11.33;;;5.07;;
38843;SDS011;24596;48.080;8.362;2023-07-09T04:35:21;9.48;;;4.05;;
38843;SDS011;24596;48.080;8.362;2023-07-09T04:37:46;10.30;;;4.78;;
38843;SDS011;24596;48.080;8.362;2023-07-09T04:40:11;9.27;;;4.35;;
38843;SDS011;24596;48.080;8.362;2023-07-09T04:42:37;9.95;;;4.68;;
38843;SDS011;24596;48.080;8.362;2023-07-09T04:45:03;11.30;;;4.65;;
38843;SDS011;24596;48.080;8.362;2023-07-09T04:47:29;11.13;;;4.63;;
38843;SDS011;24596;48.080;8.362;2023-07-09T04:49:54;11.30;;;4.72;;
38843;SDS011;24596;48.080;8.362;2023-07-09T04:52:19;11.88;;;5.47;;
38843;SDS011;24596;48.080;8.362;2023-07-09T04:54:46;9.55;;;5.35;;
38843;SDS011;24596;48.080;8.362;2023-07-09T04:57:11;11.35;;;5.60;;
38843;SDS011;24596;48.080;8.362;2023-07-09T04:59:37;11.85;;;5.57;;
38843;SDS011;24596;48.080;8.362;2023-07-09T05:02:02;9.45;;;4.60;;
38843;SDS011;24596;48.080;8.362;2023-07-09T05:04:28;10.13;;;5.00;;
38843;SDS011;24596;48.080;8.362;2023-07-09T05:06:53;9.60;;;4.80;;
38843;SDS011;24596;48.080;8.362;2023-07-09T05:09:19;11.07;;;4.90;;
38843;SDS011;24596;48.080;8.362;2023-07-09T05:11:44;10.23;;;4.63;;
38843;SDS011;24596;48.080;8.362;2023-07-09T05:14:09;7.85;;;4.68;;
38843;SDS011;24596;48.080;8.362;2023-07-09T05:16:34;8.35;;;4.63;;
38843;SDS011;24596;48.080;8.362;2023-07-09T05:19:00;11.03;;;5.00;;
38843;SDS011;24596;48.080;8.362;2023-07-09T05:21:25;9.65;;;4.78;;
38843;SDS011;24596;48.080;8.362;2023-07-09T05:23:50;7.43;;;4.60;;
38843;SDS011;24596;48.080;8.362;2023-07-09T05:26:15;9.25;;;4.75;;
38843;SDS011;24596;48.080;8.362;2023-07-09T05:28:41;10.88;;;5.20;;
38843;SDS011;24596;48.080;8.362;2023-07-09T05:31:06;9.30;;;4.83;;
38843;SDS011;24596;48.080;8.362;2023-07-09T05:33:32;10.27;;;5.05;;
38843;SDS011;24596;48.080;8.362;2023-07-09T05:35:57;11.43;;;5.05;;
38843;SDS011;24596;48.080;8.362;2023-07-09T05:38:22;7.88;;;4.40;;
38843;SDS011;24596;48.080;8.362;2023-07-09T05:40:47;12.00;;;4.77;;
38843;SDS011;24596;48.080;8.362;2023-07-09T05:43:13;10.25;;;5.03;;
38843;SDS011;24596;48.080;8.362;2023-07-09T05:45:39;11.43;;;5.07;;
38843;SDS011;24596;48.080;8.362;2023-07-09T05:48:04;8.32;;;4.65;;
38843;SDS011;24596;48.080;8.362;2023-07-09T05:50:29;11.95;;;4.80;;
38843;SDS011;24596;48.080;8.362;2023-07-09T05:52:55;10.35;;;4.25;;
38843;SDS011;24596;48.080;8.362;2023-07-09T05:55:20;9.93;;;4.53;;
38843;SDS011;24596;48.080;8.362;2023-07-09T05:57:45;10.85;;;5.18;;
38843;SDS011;24596;48.080;8.362;2023-07-09T06:00:11;9.70;;;5.05;;
38843;SDS011;24596;48.080;8.362;2023-07-09T06:02:37;8.63;;;4.68;;
38843;SDS011;24596;48.080;8.362;2023-07-09T06:05:03;8.20;;;4.63;;
38843;SDS011;24596;48.080;8.362;2023-07-09T06:07:28;8.80;;;4.75;;
38843;SDS011;24596;48.080;8.362;2023-07-09T06:09:53;11.90;;;4.57;;
38843;SDS011;24596;48.080;8.362;2023-07-09T06:12:18;9.40;;;4.45;;
38843;SDS011;24596;48.080;8.362;2023-07-09T06:14:45;9.73;;;4.78;;
38843;SDS011;24596;48.080;8.362;2023-07-09T06:17:10;10.88;;;4.80;;
38843;SDS011;24596;48.080;8.362;2023-07-09T06:19:35;10.65;;;5.32;;
38843;SDS011;24596;48.080;8.362;2023-07-09T06:22:00;11.30;;;5.10;;
38843;SDS011;24596;48.080;8.362;2023-07-09T06:24:26;8.45;;;4.97;;
38843;SDS011;24596;48.080;8.362;2023-07-09T06:26:51;10.33;;;5.20;;
38843;SDS011;24596;48.080;8.362;2023-07-09T06:29:16;10.82;;;5.20;;
38843;SDS011;24596;48.080;8.362;2023-07-09T06:31:41;6.70;;;4.10;;
38843;SDS011;24596;48.080;8.362;2023-07-09T06:34:07;11.10;;;5.18;;
38843;SDS011;24596;48.080;8.362;2023-07-09T06:36:34;8.45;;;4.88;;
38843;SDS011;24596;48.080;8.362;2023-07-09T06:38:59;8.23;;;4.70;;
38843;SDS011;24596;48.080;8.362;2023-07-09T06:41:24;7.47;;;4.50;;
38843;SDS011;24596;48.080;8.362;2023-07-09T06:43:50;9.50;;;4.50;;
38843;SDS011;24596;48.080;8.362;2023-07-09T06:46:15;7.20;;;4.32;;
38843;SDS011;24596;48.080;8.362;2023-07-09T06:48:40;8.05;;;3.97;;
38843;SDS011;24596;48.080;8.362;2023-07-09T06:51:06;10.07;;;3.90;;
38843;SDS011;24596;48.080;8.362;2023-07-09T06:53:31;9.70;;;4.47;;
38843;SDS011;24596;48.080;8.362;2023-07-09T06:55:57;9.00;;;3.88;;
38843;SDS011;24596;48.080;8.362;2023-07-09T06:58:24;7.45;;;3.95;;
38843;SDS011;24596;48.080;8.362;2023-07-09T07:00:50;9.48;;;4.25;;
38843;SDS011;24596;48.080;8.362;2023-07-09T07:03:16;7.28;;;3.83;;
38843;SDS011;24596;48.080;8.362;2023-07-09T07:05:44;8.00;;;3.95;;
38843;SDS011;24596;48.080;8.362;2023-07-09T07:08:10;8.40;;;4.20;;
38843;SDS011;24596;48.080;8.362;2023-07-09T07:10:36;7.85;;;3.63;;
38843;SDS011;24596;48.080;8.362;2023-07-09T07:13:01;7.97;;;3.65;;
38843;SDS011;24596;48.080;8.362;2023-07-09T07:15:26;7.07;;;3.43;;
38843;SDS011;24596;48.080;8.362;2023-07-09T07:17:51;7.35;;;3.50;;
38843;SDS011;24596;48.080;8.362;2023-07-09T07:20:17;9.52;;;3.85;;
38843;SDS011;24596;48.080;8.362;2023-07-09T07:22:42;7.35;;;3.65;;
38843;SDS011;24596;48.080;8.362;2023-07-09T07:25:08;9.03;;;3.57;;
38843;SDS011;24596;48.080;8.362;2023-07-09T07:27:33;8.27;;;3.90;;
38843;SDS011;24596;48.080;8.362;2023-07-09T07:29:59;7.95;;;4.05;;
38843;SDS011;24596;48.080;8.362;2023-07-09T07:32:24;8.20;;;4.30;;
38843;SDS011;24596;48.080;8.362;2023-07-09T07:34:50;7.80;;;4.00;;
38843;SDS011;24596;48.080;8.362;2023-07-09T07:37:17;9.73;;;4.63;;
38843;SDS011;24596;48.080;8.362;2023-07-09T07:39:44;7.53;;;4.10;;
38843;SDS011;24596;48.080;8.362;2023-07-09T07:42:09;9.07;;;5.03;;
38843;SDS011;24596;48.080;8.362;2023-07-09T07:44:34;9.90;;;4.57;;
38843;SDS011;24596;48.080;8.362;2023-07-09T07:47:01;7.30;;;3.65;;
38843;SDS011;24596;48.080;8.362;2023-07-09T07:49:26;9.93;;;4.10;;
38843;SDS011;24596;48.080;8.362;2023-07-09T07:51:52;7.90;;;4.00;;
38843;SDS011;24596;48.080;8.362;2023-07-09T07:54:17;10.75;;;4.20;;
38843;SDS011;24596;48.080;8.362;2023-07-09T07:56:43;10.30;;;3.92;;
38843;SDS011;24596;48.080;8.362;2023-07-09T07:59:08;10.32;;;4.45;;
38843;SDS011;24596;48.080;8.362;2023-07-09T08:01:33;7.60;;;3.60;;
38843;SDS011;24596;48.080;8.362;2023-07-09T08:04:01;7.90;;;3.70;;
38843;SDS011;24596;48.080;8.362;2023-07-09T08:06:26;8.07;;;4.20;;
38843;SDS011;24596;48.080;8.362;2023-07-09T08:08:51;7.67;;;4.00;;
38843;SDS011;24596;48.080;8.362;2023-07-09T08:11:16;9.40;;;4.03;;
38843;SDS011;24596;48.080;8.362;2023-07-09T08:13:42;7.00;;;3.80;;
38843;SDS011;24596;48.080;8.362;2023-07-09T08:16:07;12.85;;;4.00;;
38843;SDS011;24596;48.080;8.362;2023-07-09T08:18:33;10.23;;;4.10;;
38843;SDS011;24596;48.080;8.362;2023-07-09T08:20:59;8.98;;;4.18;;
38843;SDS011;24596;48.080;8.362;2023-07-09T08:23:24;10.75;;;3.78;;
38843;SDS011;24596;48.080;8.362;2023-07-09T08:25:56;7.83;;;3.63;;
38843;SDS011;24596;48.080;8.362;2023-07-09T08:28:22;10.30;;;4.20;;
38843;SDS011;24596;48.080;8.362;2023-07-09T08:30:47;11.40;;;3.50;;
38843;SDS011;24596;48.080;8.362;2023-07-09T08:33:12;7.72;;;3.42;;
38843;SDS011;24596;48.080;8.362;2023-07-09T08:35:38;7.87;;;3.63;;
38843;SDS011;24596;48.080;8.362;2023-07-09T08:38:03;9.05;;;3.70;;
38843;SDS011;24596;48.080;8.362;2023-07-09T08:40:29;8.40;;;3.55;;
38843;SDS011;24596;48.080;8.362;2023-07-09T08:43:00;7.68;;;3.45;;
38843;SDS011;24596;48.080;8.362;2023-07-09T08:48:13;7.93;;;3.50;;
38843;SDS011;24596;48.080;8.362;2023-07-09T08:50:45;9.50;;;3.60;;
38843;SDS011;24596;48.080;8.362;2023-07-09T08:53:39;9.43;;;3.80;;
38843;SDS011;24596;48.080;8.362;2023-07-09T08:56:08;7.10;;;3.80;;
38843;SDS011;24596;48.080;8.362;2023-07-09T08:58:34;9.23;;;3.50;;
38843;SDS011;24596;48.080;8.362;2023-07-09T09:01:01;10.40;;;3.80;;
38843;SDS011;24596;48.080;8.362;2023-07-09T09:03:41;7.15;;;3.47;;
38843;SDS011;24596;48.080;8.362;2023-07-09T09:06:11;7.00;;;3.67;;
38843;SDS011;24596;48.080;8.362;2023-07-09T09:08:39;7.30;;;3.90;;
38843;SDS011;24596;48.080;8.362;2023-07-09T09:11:20;7.70;;;3.50;;
38843;SDS011;24596;48.080;8.362;2023-07-09T09:13:48;7.65;;;3.58;;
38843;SDS011;24596;48.080;8.362;2023-07-09T09:18:58;7.50;;;3.53;;
38843;SDS011;24596;48.080;8.362;2023-07-09T09:21:42;7.38;;;3.30;;
38843;SDS011;24596;48.080;8.362;2023-07-09T09:24:14;6.60;;;3.78;;
38843;SDS011;24596;48.080;8.362;2023-07-09T09:26:42;7.65;;;3.03;;
38843;SDS011;24596;48.080;8.362;2023-07-09T09:29:11;7.85;;;3.45;;
38843;SDS011;24596;48.080;8.362;2023-07-09T09:31:37;8.77;;;3.60;;
38843;SDS011;24596;48.080;8.362;2023-07-09T09:34:02;7.23;;;3.87;;
38843;SDS011;24596;48.080;8.362;2023-07-09T09:36:27;8.43;;;3.70;;
38843;SDS011;24596;48.080;8.362;2023-07-09T09:38:53;9.00;;;4.07;;
38843;SDS011;24596;48.080;8.362;2023-07-09T09:41:22;7.22;;;3.20;;
38843;SDS011;24596;48.080;8.362;2023-07-09T09:43:48;6.85;;;3.60;;
38843;SDS011;24596;48.080;8.362;2023-07-09T09:46:18;8.55;;;3.53;;
38843;SDS011;24596;48.080;8.362;2023-07-09T09:48:44;9.73;;;4.10;;
38843;SDS011;24596;48.080;8.362;2023-07-09T09:51:10;10.90;;;4.00;;
38843;SDS011;24596;48.080;8.362;2023-07-09T09:53:40;9.10;;;4.60;;
38843;SDS011;24596;48.080;8.362;2023-07-09T09:56:09;9.65;;;4.32;;
38843;SDS011;24596;48.080;8.362;2023-07-09T09:58:39;10.55;;;3.83;;
38843;SDS011;24596;48.080;8.362;2023-07-09T10:01:05;9.52;;;3.50;;
38843;SDS011;24596;48.080;8.362;2023-07-09T10:03:34;7.83;;;3.80;;
38843;SDS011;24596;48.080;8.362;2023-07-09T10:06:00;8.60;;;4.07;;
38843;SDS011;24596;48.080;8.362;2023-07-09T10:08:38;6.85;;;3.13;;
38843;SDS011;24596;48.080;8.362;2023-07-09T10:11:16;8.45;;;3.88;;
38843;SDS011;24596;48.080;8.362;2023-07-09T10:13:43;10.20;;;3.83;;
38843;SDS011;24596;48.080;8.362;2023-07-09T10:21:22;11.70;;;4.30;;
38843;SDS011;24596;48.080;8.362;2023-07-09T10:26:15;10.90;;;3.73;;
38843;SDS011;24596;48.080;8.362;2023-07-09T10:34:13;8.25;;;4.10;;
38843;SDS011;24596;48.080;8.362;2023-07-09T10:39:27;9.70;;;3.75;;
38843;SDS011;24596;48.080;8.362;2023-07-09T10:41:55;7.50;;;4.00;;
38843;SDS011;24596;48.080;8.362;2023-07-09T10:44:22;7.50;;;3.80;;
38843;SDS011;24596;48.080;8.362;2023-07-09T10:46:50;7.63;;;3.70;;
38843;SDS011;24596;48.080;8.362;2023-07-09T10:49:17;8.95;;;3.53;;
38843;SDS011;24596;48.080;8.362;2023-07-09T10:56:50;8.20;;;3.97;;
38843;SDS011;24596;48.080;8.362;2023-07-09T10:59:25;8.65;;;3.63;;
38843;SDS011;24596;48.080;8.362;2023-07-09T11:02:16;10.73;;;4.00;;
38843;SDS011;24596;48.080;8.362;2023-07-09T11:04:47;9.73;;;3.67;;
38843;SDS011;24596;48.080;8.362;2023-07-09T11:07:15;10.65;;;3.50;;
38843;SDS011;24596;48.080;8.362;2023-07-09T11:09:42;6.57;;;3.30;;
38843;SDS011;24596;48.080;8.362;2023-07-09T11:12:10;6.72;;;3.50;;
38843;SDS011;24596;48.080;8.362;2023-07-09T11:14:39;8.85;;;3.90;;
38843;SDS011;24596;48.080;8.362;2023-07-09T11:17:06;8.82;;;3.65;;
38843;SDS011;24596;48.080;8.362;2023-07-09T11:19:40;7.82;;;3.10;;
38843;SDS011;24596;48.080;8.362;2023-07-09T11:22:14;7.85;;;3.63;;
38843;SDS011;24596;48.080;8.362;2023-07-09T11:24:45;9.48;;;3.40;;
38843;SDS011;24596;48.080;8.362;2023-07-09T11:27:16;7.88;;;3.58;;
38843;SDS011;24596;48.080;8.362;2023-07-09T11:29:45;8.13;;;3.75;;
38843;SDS011;24596;48.080;8.362;2023-07-09T11:32:18;8.73;;;3.45;;
38843;SDS011;24596;48.080;8.362;2023-07-09T11:34:46;8.15;;;3.67;;
38843;SDS011;24596;48.080;8.362;2023-07-09T11:37:12;6.95;;;3.42;;
38843;SDS011;24596;48.080;8.362;2023-07-09T11:42:03;7.57;;;3.25;;
38843;SDS011;24596;48.080;8.362;2023-07-09T11:44:29;6.18;;;3.03;;
38843;SDS011;24596;48.080;8.362;2023-07-09T11:47:07;10.50;;;3.65;;
38843;SDS011;24596;48.080;8.362;2023-07-09T11:49:46;9.55;;;3.78;;
38843;SDS011;24596;48.080;8.362;2023-07-09T11:52:13;7.55;;;3.05;;
38843;SDS011;24596;48.080;8.362;2023-07-09T11:54:40;11.50;;;3.10;;
38843;SDS011;24596;48.080;8.362;2023-07-09T11:59:39;10.75;;;3.33;;
38843;SDS011;24596;48.080;8.362;2023-07-09T12:02:04;7.43;;;2.97;;
38843;SDS011;24596;48.080;8.362;2023-07-09T12:04:33;9.35;;;3.42;;
38843;SDS011;24596;48.080;8.362;2023-07-09T12:06:59;6.68;;;3.25;;
38843;SDS011;24596;48.080;8.362;2023-07-09T12:09:29;6.80;;;3.33;;
38843;SDS011;24596;48.080;8.362;2023-07-09T12:11:55;8.80;;;3.47;;
38843;SDS011;24596;48.080;8.362;2023-07-09T12:14:21;7.10;;;3.27;;
38843;SDS011;24596;48.080;8.362;2023-07-09T12:16:47;8.25;;;3.08;;
38843;SDS011;24596;48.080;8.362;2023-07-09T12:19:14;7.13;;;3.30;;
38843;SDS011;24596;48.080;8.362;2023-07-09T12:21:42;8.10;;;3.00;;
38843;SDS011;24596;48.080;8.362;2023-07-09T12:26:43;6.40;;;3.13;;
38843;SDS011;24596;48.080;8.362;2023-07-09T12:29:12;6.40;;;3.40;;
38843;SDS011;24596;48.080;8.362;2023-07-09T12:31:37;7.53;;;3.23;;
38843;SDS011;24596;48.080;8.362;2023-07-09T12:34:04;9.93;;;3.67;;
38843;SDS011;24596;48.080;8.362;2023-07-09T12:36:29;7.10;;;3.13;;
38843;SDS011;24596;48.080;8.362;2023-07-09T12:39:04;7.30;;;3.33;;
38843;SDS011;24596;48.080;8.362;2023-07-09T12:41:35;6.32;;;3.38;;
38843;SDS011;24596;48.080;8.362;2023-07-09T12:44:01;9.40;;;3.50;;
38843;SDS011;24596;48.080;8.362;2023-07-09T12:46:26;7.13;;;3.35;;
38843;SDS011;24596;48.080;8.362;2023-07-09T12:48:54;7.10;;;3.20;;
38843;SDS011;24596;48.080;8.362;2023-07-09T12:51:21;6.80;;;2.90;;
38843;SDS011;24596;48.080;8.362;2023-07-09T12:53:49;7.57;;;3.05;;
38843;SDS011;24596;48.080;8.362;2023-07-09T12:56:15;8.03;;;3.33;;
38843;SDS011;24596;48.080;8.362;2023-07-09T12:58:40;6.03;;;3.33;;
38843;SDS011;24596;48.080;8.362;2023-07-09T13:01:07;6.60;;;3.20;;
38843;SDS011;24596;48.080;8.362;2023-07-09T13:03:32;9.18;;;3.30;;
38843;SDS011;24596;48.080;8.362;2023-07-09T13:08:27;7.75;;;3.88;;
38843;SDS011;24596;48.080;8.362;2023-07-09T13:10:53;6.78;;;3.78;;
38843;SDS011;24596;48.080;8.362;2023-07-09T13:13:20;7.00;;;3.58;;
38843;SDS011;24596;48.080;8.362;2023-07-09T13:15:52;14.15;;;4.32;;
38843;SDS011;24596;48.080;8.362;2023-07-09T13:18:22;6.70;;;3.17;;
38843;SDS011;24596;48.080;8.362;2023-07-09T13:20:47;6.57;;;3.13;;
38843;SDS011;24596;48.080;8.362;2023-07-09T13:23:14;8.25;;;3.42;;
38843;SDS011;24596;48.080;8.362;2023-07-09T13:25:40;8.70;;;3.47;;
38843;SDS011;24596;48.080;8.362;2023-07-09T13:28:25;10.50;;;4.75;;
38843;SDS011;24596;48.080;8.362;2023-07-09T13:30:56;7.30;;;3.15;;
38843;SDS011;24596;48.080;8.362;2023-07-09T13:33:21;7.10;;;3.40;;
38843;SDS011;24596;48.080;8.362;2023-07-09T13:35:47;8.93;;;3.65;;
38843;SDS011;24596;48.080;8.362;2023-07-09T13:38:16;8.55;;;3.42;;
38843;SDS011;24596;48.080;8.362;2023-07-09T13:40:42;7.88;;;3.30;;
38843;SDS011;24596;48.080;8.362;2023-07-09T13:43:10;6.43;;;2.90;;
38843;SDS011;24596;48.080;8.362;2023-07-09T13:45:36;10.15;;;3.22;;
38843;SDS011;24596;48.080;8.362;2023-07-09T13:48:01;7.53;;;3.20;;
38843;SDS011;24596;48.080;8.362;2023-07-09T13:50:27;8.30;;;3.17;;
38843;SDS011;24596;48.080;8.362;2023-07-09T13:52:52;9.23;;;3.70;;
38843;SDS011;24596;48.080;8.362;2023-07-09T13:55:22;9.50;;;3.57;;
38843;SDS011;24596;48.080;8.362;2023-07-09T13:57:48;7.40;;;3.03;;
38843;SDS011;24596;48.080;8.362;2023-07-09T14:00:14;7.43;;;3.60;;
38843;SDS011;24596;48.080;8.362;2023-07-09T14:02:40;8.88;;;3.53;;
38843;SDS011;24596;48.080;8.362;2023-07-09T14:05:06;8.82;;;3.60;;
38843;SDS011;24596;48.080;8.362;2023-07-09T14:07:34;8.23;;;3.40;;
38843;SDS011;24596;48.080;8.362;2023-07-09T14:10:00;7.60;;;3.28;;
38843;SDS011;24596;48.080;8.362;2023-07-09T14:12:26;10.20;;;3.47;;
38843;SDS011;24596;48.080;8.362;2023-07-09T14:14:52;11.90;;;3.45;;
38843;SDS011;24596;48.080;8.362;2023-07-09T14:17:17;9.10;;;3.60;;
38843;SDS011;24596;48.080;8.362;2023-07-09T14:19:43;9.50;;;3.30;;
38843;SDS011;24596;48.080;8.362;2023-07-09T14:24:42;9.77;;;3.45;;
38843;SDS011;24596;48.080;8.362;2023-07-09T14:27:08;12.03;;;3.77;;
38843;SDS011;24596;48.080;8.362;2023-07-09T14:29:33;8.05;;;3.80;;
38843;SDS011;24596;48.080;8.362;2023-07-09T14:31:58;7.25;;;3.58;;
38843;SDS011;24596;48.080;8.362;2023-07-09T14:34:24;8.27;;;3.57;;
38843;SDS011;24596;48.080;8.362;2023-07-09T14:36:52;6.85;;;3.03;;
38843;SDS011;24596;48.080;8.362;2023-07-09T14:39:18;6.93;;;3.22;;
38843;SDS011;24596;48.080;8.362;2023-07-09T14:41:43;7.70;;;3.15;;
38843;SDS011;24596;48.080;8.362;2023-07-09T14:44:25;8.43;;;2.93;;
38843;SDS011;24596;48.080;8.362;2023-07-09T14:46:51;7.07;;;3.22;;
38843;SDS011;24596;48.080;8.362;2023-07-09T14:49:17;8.00;;;3.20;;
38843;SDS011;24596;48.080;8.362;2023-07-09T14:51:43;9.23;;;3.42;;
38843;SDS011;24596;48.080;8.362;2023-07-09T14:54:41;7.18;;;3.10;;
38843;SDS011;24596;48.080;8.362;2023-07-09T14:57:16;7.80;;;3.70;;
38843;SDS011;24596;48.080;8.362;2023-07-09T14:59:45;9.65;;;3.55;;
38843;SDS011;24596;48.080;8.362;2023-07-09T15:04:54;6.93;;;3.42;;
38843;SDS011;24596;48.080;8.362;2023-07-09T15:07:19;11.73;;;4.13;;
38843;SDS011;24596;48.080;8.362;2023-07-09T15:09:47;8.02;;;3.28;;
38843;SDS011;24596;48.080;8.362;2023-07-09T15:12:25;9.98;;;3.58;;
38843;SDS011;24596;48.080;8.362;2023-07-09T15:14:51;8.55;;;3.33;;
38843;SDS011;24596;48.080;8.362;2023-07-09T15:17:16;7.13;;;3.00;;
38843;SDS011;24596;48.080;8.362;2023-07-09T15:19:41;10.38;;;3.58;;
38843;SDS011;24596;48.080;8.362;2023-07-09T15:22:16;8.32;;;3.60;;
38843;SDS011;24596;48.080;8.362;2023-07-09T15:24:42;10.02;;;3.60;;
38843;SDS011;24596;48.080;8.362;2023-07-09T15:27:08;7.10;;;3.80;;